createdAt,value
2017-12-01T00:01:52.904Z,27.43
2017-12-01T00:04:20.564Z,25.00
2017-12-01T00:06:48.143Z,25.27
2017-12-01T00:09:15.721Z,26.20
2017-12-01T00:11:43.660Z,24.00
2017-12-01T00:14:11.529Z,24.20
2017-12-01T00:16:39.184Z,26.37
2017-12-01T00:19:06.760Z,25.70
2017-12-01T00:21:34.347Z,24.73
2017-12-01T00:24:01.962Z,23.40
2017-12-01T00:26:29.540Z,23.17
2017-12-01T00:28:57.504Z,26.47
2017-12-01T00:31:25.089Z,25.20
2017-12-01T00:33:52.692Z,24.87
2017-12-01T00:36:20.287Z,25.17
2017-12-01T00:38:47.867Z,26.33
2017-12-01T00:41:15.520Z,25.53
2017-12-01T00:43:43.100Z,25.20
2017-12-01T00:46:10.682Z,28.03
2017-12-01T00:48:38.292Z,25.73
2017-12-01T00:51:06.172Z,25.60
2017-12-01T00:53:34.038Z,24.93
2017-12-01T00:56:01.620Z,25.67
2017-12-01T00:58:29.465Z,26.40
2017-12-01T01:00:57.084Z,27.40
2017-12-01T01:03:25.156Z,27.37
2017-12-01T01:05:53.075Z,26.43
2017-12-01T01:08:20.665Z,27.17
2017-12-01T01:10:49.807Z,27.40
2017-12-01T01:13:17.695Z,26.60
2017-12-01T01:15:45.285Z,24.53
2017-12-01T01:18:12.900Z,26.60
2017-12-01T01:20:40.792Z,25.10
2017-12-01T01:23:08.419Z,24.90
2017-12-01T01:25:36.048Z,24.67
2017-12-01T01:28:03.999Z,24.90
2017-12-01T01:30:31.620Z,24.47
2017-12-01T01:32:59.221Z,25.40
2017-12-01T01:35:26.805Z,24.37
2017-12-01T01:37:54.424Z,25.83
2017-12-01T01:40:22.019Z,25.57
2017-12-01T01:42:49.668Z,25.63
2017-12-01T01:45:17.274Z,27.20
2017-12-01T01:47:44.869Z,25.67
2017-12-01T01:50:12.496Z,26.10
2017-12-01T01:52:40.423Z,27.50
2017-12-01T01:55:08.056Z,26.13
2017-12-01T01:57:35.643Z,26.43
2017-12-01T02:00:03.304Z,25.20
2017-12-01T02:02:30.919Z,25.57
2017-12-01T02:04:58.575Z,27.07
2017-12-01T02:07:26.209Z,24.87
2017-12-01T02:09:54.053Z,26.00
2017-12-01T02:12:21.624Z,25.93
2017-12-01T02:14:49.241Z,27.63
2017-12-01T02:17:17.144Z,25.73
2017-12-01T02:19:44.800Z,27.20
2017-12-01T02:22:12.382Z,26.27
2017-12-01T02:24:39.968Z,27.80
2017-12-01T02:27:07.898Z,26.70
2017-12-01T02:29:35.504Z,27.23
2017-12-01T02:32:03.125Z,25.97
2017-12-01T02:34:30.724Z,26.00
2017-12-01T02:36:58.311Z,27.63
2017-12-01T02:39:25.937Z,27.30
2017-12-01T02:41:53.772Z,26.10
2017-12-01T02:44:21.641Z,26.60
2017-12-01T02:46:49.234Z,28.27
2017-12-01T02:49:17.172Z,28.00
2017-12-01T02:51:44.792Z,27.83
2017-12-01T02:54:12.388Z,27.13
2017-12-01T02:56:40.064Z,27.13
2017-12-01T02:59:07.648Z,28.90
2017-12-01T03:01:35.256Z,28.07
2017-12-01T03:04:02.951Z,28.97
2017-12-01T03:06:30.555Z,30.37
2017-12-01T03:08:58.448Z,26.30
2017-12-01T03:11:26.344Z,28.10
2017-12-01T03:13:54.176Z,27.30
2017-12-01T03:16:22.080Z,28.30
2017-12-01T03:18:49.662Z,27.00
2017-12-01T03:21:17.286Z,27.50
2017-12-01T03:23:44.894Z,28.37
2017-12-01T03:26:12.613Z,27.40
2017-12-01T03:28:40.232Z,27.70
2017-12-01T03:31:07.826Z,26.73
2017-12-01T03:33:35.444Z,27.27
2017-12-01T03:36:03.032Z,27.67
2017-12-01T03:38:30.652Z,28.40
2017-12-01T03:40:58.319Z,27.80
2017-12-01T03:43:25.909Z,28.37
2017-12-01T03:45:53.540Z,28.37
2017-12-01T03:48:21.128Z,29.00
2017-12-01T03:50:48.720Z,30.10
2017-12-01T03:53:16.364Z,28.70
2017-12-01T03:55:43.982Z,28.43
2017-12-01T03:58:11.557Z,28.83
2017-12-01T04:00:39.169Z,28.10
2017-12-01T04:03:06.765Z,30.30
2017-12-01T04:05:34.359Z,29.10
2017-12-01T04:08:01.991Z,29.13
2017-12-01T04:10:29.577Z,28.47
2017-12-01T04:12:57.173Z,29.50
2017-12-01T04:15:24.784Z,30.33
2017-12-01T04:17:52.369Z,29.13
2017-12-01T04:20:19.986Z,29.97
2017-12-01T04:22:47.566Z,32.10
2017-12-01T04:25:15.142Z,30.87
2017-12-01T04:27:42.790Z,29.50
2017-12-01T04:30:10.380Z,30.40
2017-12-01T04:32:38.026Z,30.40
2017-12-01T04:35:05.969Z,31.03
2017-12-01T04:37:33.548Z,29.63
2017-12-01T04:40:01.165Z,30.50
2017-12-01T04:42:28.750Z,30.73
2017-12-01T04:44:56.380Z,29.40
2017-12-01T04:47:24.008Z,30.70
2017-12-01T04:49:51.599Z,31.57
2017-12-01T04:52:19.212Z,29.67
2017-12-01T04:54:46.824Z,30.10
2017-12-01T04:57:14.740Z,30.93
2017-12-01T04:59:42.360Z,33.00
2017-12-01T05:02:10.808Z,30.57
2017-12-01T05:04:38.421Z,31.23
2017-12-01T05:07:06.079Z,31.67
2017-12-01T05:09:33.765Z,31.47
2017-12-01T05:12:01.372Z,33.67
2017-12-01T05:14:28.968Z,32.83
2017-12-01T05:16:56.868Z,31.03
2017-12-01T05:19:24.475Z,33.07
2017-12-01T05:21:52.109Z,32.00
2017-12-01T05:24:19.695Z,33.20
2017-12-01T05:26:47.616Z,32.27
2017-12-01T05:29:15.244Z,32.40
2017-12-01T05:31:42.839Z,35.43
2017-12-01T05:34:10.747Z,31.50
2017-12-01T05:36:38.334Z,32.30
2017-12-01T05:39:05.973Z,34.00
2017-12-01T05:41:33.591Z,32.37
2017-12-01T05:44:01.192Z,33.27
2017-12-01T05:46:28.860Z,33.47
2017-12-01T05:48:56.443Z,32.60
2017-12-01T05:51:24.344Z,32.73
2017-12-01T05:53:52.421Z,32.20
2017-12-01T05:56:19.999Z,33.27
2017-12-01T05:58:47.620Z,32.00
2017-12-01T06:01:15.192Z,34.00
2017-12-01T06:03:43.068Z,31.97
2017-12-01T06:06:10.687Z,34.23
2017-12-01T06:08:38.286Z,34.60
2017-12-01T06:11:06.183Z,34.83
2017-12-01T06:13:34.004Z,31.00
2017-12-01T06:16:01.774Z,30.50
2017-12-01T06:18:30.126Z,33.00
2017-12-01T06:20:57.737Z,33.37
2017-12-01T06:23:25.409Z,34.10
2017-12-01T06:25:52.988Z,33.63
2017-12-01T06:28:20.580Z,32.77
2017-12-01T06:30:48.236Z,32.20
2017-12-01T06:33:15.828Z,31.73
2017-12-01T06:35:43.468Z,31.70
2017-12-01T06:38:11.380Z,31.20
2017-12-01T06:40:38.968Z,32.17
2017-12-01T06:43:06.918Z,32.60
2017-12-01T06:45:34.543Z,36.80
2017-12-01T06:48:02.177Z,33.27
2017-12-01T06:50:29.767Z,34.13
2017-12-01T06:52:57.362Z,33.17
2017-12-01T06:55:25.332Z,34.80
2017-12-01T06:57:52.926Z,34.53
2017-12-01T07:00:20.866Z,32.37
2017-12-01T07:02:48.458Z,35.07
2017-12-01T07:05:16.122Z,34.00
2017-12-01T07:07:44.070Z,35.10
2017-12-01T07:10:11.956Z,32.83
2017-12-01T07:12:39.617Z,34.70
2017-12-01T07:15:08.550Z,33.87
2017-12-01T07:17:36.192Z,33.93
2017-12-01T07:20:03.832Z,33.63
2017-12-01T07:22:31.703Z,31.83
2017-12-01T07:24:59.341Z,33.10
2017-12-01T07:27:26.942Z,34.40
2017-12-01T07:29:54.531Z,34.97
2017-12-01T07:32:22.144Z,33.53
2017-12-01T07:34:50.003Z,32.40
2017-12-01T07:37:17.637Z,32.37
2017-12-01T07:39:45.229Z,34.07
2017-12-01T07:42:13.093Z,34.77
2017-12-01T07:44:46.296Z,33.80
2017-12-01T07:47:13.880Z,33.00
2017-12-01T07:49:41.547Z,33.00
2017-12-01T07:52:09.171Z,33.20
2017-12-01T07:54:36.749Z,31.50
2017-12-01T07:57:04.509Z,31.77
2017-12-01T07:59:32.364Z,31.17
2017-12-01T08:02:00.000Z,32.80
2017-12-01T08:04:27.617Z,33.93
2017-12-01T08:06:55.229Z,31.47
2017-12-01T08:09:22.913Z,31.47
2017-12-01T08:11:50.776Z,32.10
2017-12-01T08:14:18.419Z,31.33
2017-12-01T08:19:50.936Z,32.63
2017-12-01T08:25:29.813Z,31.97
2017-12-01T08:27:57.417Z,32.27
2017-12-01T08:30:25.024Z,33.07
2017-12-01T08:32:52.635Z,31.80
2017-12-01T08:35:20.237Z,32.70
2017-12-01T08:37:47.893Z,31.47
2017-12-01T08:40:15.758Z,30.47
2017-12-01T08:42:43.343Z,30.80
2017-12-01T08:45:11.602Z,31.00
2017-12-01T08:47:39.233Z,32.03
2017-12-01T08:50:06.862Z,31.80
2017-12-01T08:52:34.789Z,31.50
2017-12-01T08:55:02.368Z,30.93
2017-12-01T08:57:29.986Z,31.23
2017-12-01T08:59:57.892Z,30.37
2017-12-01T09:02:25.800Z,30.20
2017-12-01T09:04:53.419Z,29.93
2017-12-01T09:07:21.020Z,29.97
2017-12-01T09:09:48.949Z,31.70
2017-12-01T09:12:16.547Z,30.40
2017-12-01T09:14:44.159Z,29.97
2017-12-01T09:17:11.729Z,29.03
2017-12-01T09:19:39.482Z,30.90
2017-12-01T09:22:07.362Z,27.87
2017-12-01T09:24:34.984Z,32.30
2017-12-01T09:27:02.619Z,29.50
2017-12-01T09:29:30.205Z,29.47
2017-12-01T09:31:58.124Z,28.00
2017-12-01T09:34:25.758Z,29.27
2017-12-01T09:36:53.373Z,30.57
2017-12-01T09:39:21.009Z,30.13
2017-12-01T09:41:48.615Z,29.30
2017-12-01T09:44:16.532Z,30.30
2017-12-01T09:46:44.144Z,31.00
2017-12-01T09:49:12.065Z,29.53
2017-12-01T09:51:40.038Z,28.50
2017-12-01T09:54:07.901Z,29.00
2017-12-01T09:56:35.768Z,29.23
2017-12-01T09:59:03.406Z,29.13
2017-12-01T10:01:31.023Z,28.63
2017-12-01T10:03:58.660Z,30.97
2017-12-01T10:06:26.266Z,29.73
2017-12-01T10:08:53.842Z,29.03
2017-12-01T10:11:21.461Z,29.40
2017-12-01T10:13:49.044Z,27.73
2017-12-01T10:16:16.724Z,28.00
2017-12-01T10:18:44.368Z,28.90
2017-12-01T10:21:11.951Z,28.13
2017-12-01T10:23:39.612Z,29.13
2017-12-01T10:26:07.214Z,30.00
2017-12-01T10:28:35.191Z,31.17
2017-12-01T10:31:02.777Z,29.23
2017-12-01T10:33:30.372Z,30.63
2017-12-01T10:35:58.028Z,26.47
2017-12-01T10:38:25.636Z,25.47
2017-12-01T10:40:53.261Z,25.83
2017-12-01T10:43:20.853Z,26.63
2017-12-01T10:45:48.466Z,25.77
2017-12-01T10:48:16.097Z,27.17
2017-12-01T10:50:43.692Z,25.43
2017-12-01T10:53:11.319Z,25.50
2017-12-01T10:55:38.909Z,25.43
2017-12-01T10:58:06.493Z,26.40
2017-12-01T11:00:34.100Z,24.67
2017-12-01T11:03:01.722Z,24.70
2017-12-01T11:05:29.527Z,23.83
2017-12-01T11:07:57.100Z,24.50
2017-12-01T11:10:24.731Z,23.50
2017-12-01T11:12:53.339Z,24.77
2017-12-01T11:15:20.976Z,24.93
2017-12-01T11:17:48.604Z,23.10
2017-12-01T11:20:16.217Z,23.20
2017-12-01T11:22:43.820Z,22.80
2017-12-01T11:25:11.433Z,23.90
2017-12-01T11:27:39.034Z,24.93
2017-12-01T11:30:06.657Z,26.13
2017-12-01T11:32:34.544Z,25.10
2017-12-01T11:35:02.120Z,24.40
2017-12-01T11:37:31.341Z,23.30
2017-12-01T11:39:59.188Z,24.40
2017-12-01T11:42:26.824Z,24.57
2017-12-01T11:44:54.694Z,25.67
2017-12-01T11:47:22.270Z,24.97
2017-12-01T11:49:50.219Z,25.63
2017-12-01T11:52:17.832Z,25.53
2017-12-01T11:54:45.461Z,23.90
2017-12-01T11:57:13.084Z,25.40
2017-12-01T11:59:40.676Z,25.43
2017-12-01T12:02:08.636Z,24.10
2017-12-01T12:04:36.311Z,23.90
2017-12-01T12:07:03.941Z,23.93
2017-12-01T12:09:31.515Z,23.70
2017-12-01T12:11:59.105Z,24.30
2017-12-01T12:14:26.720Z,24.00
2017-12-01T12:16:54.303Z,23.77
2017-12-01T12:19:21.929Z,24.13
2017-12-01T12:21:49.524Z,22.63
2017-12-01T12:24:17.124Z,22.50
2017-12-01T12:26:44.744Z,21.70
2017-12-01T12:29:12.630Z,22.17
2017-12-01T12:31:40.317Z,23.43
2017-12-01T12:34:07.909Z,22.43
2017-12-01T12:36:35.516Z,24.20
2017-12-01T12:39:03.211Z,24.50
2017-12-01T12:41:30.817Z,24.50
2017-12-01T12:43:58.476Z,23.40
2017-12-01T12:46:26.083Z,22.90
2017-12-01T12:48:53.679Z,22.97
2017-12-01T12:51:21.304Z,21.97
2017-12-01T12:53:48.909Z,22.50
2017-12-01T12:56:16.618Z,23.17
2017-12-01T12:58:44.184Z,21.20
2017-12-01T13:01:11.781Z,22.50
2017-12-01T13:03:39.712Z,21.73
2017-12-01T13:06:07.620Z,23.20
2017-12-01T13:08:35.240Z,23.07
2017-12-01T13:11:02.832Z,22.87
2017-12-01T13:13:30.487Z,21.97
2017-12-01T13:15:58.077Z,22.70
2017-12-01T13:18:25.667Z,22.20
2017-12-01T13:20:53.296Z,21.97
2017-12-01T13:23:20.893Z,21.43
2017-12-01T13:25:48.786Z,21.17
2017-12-01T13:28:16.444Z,20.77
2017-12-01T13:30:44.075Z,22.77
2017-12-01T13:33:11.796Z,22.50
2017-12-01T13:35:39.411Z,22.03
2017-12-01T13:38:07.300Z,20.00
2017-12-01T13:40:35.167Z,22.90
2017-12-01T13:43:02.829Z,23.43
2017-12-01T13:45:30.445Z,20.83
2017-12-01T13:47:58.124Z,21.93
2017-12-01T13:50:25.745Z,24.10
2017-12-01T13:52:53.449Z,23.70
2017-12-01T13:55:21.077Z,20.67
2017-12-01T13:57:48.897Z,21.00
2017-12-01T14:00:16.824Z,21.50
2017-12-01T14:02:44.456Z,21.13
2017-12-01T14:05:12.053Z,21.50
2017-12-01T14:07:39.740Z,20.30
2017-12-01T14:10:07.653Z,21.83
2017-12-01T14:12:35.284Z,20.70
2017-12-01T14:15:04.092Z,20.67
2017-12-01T14:17:31.675Z,21.20
2017-12-01T14:19:59.274Z,20.97
2017-12-01T14:22:26.891Z,19.50
2017-12-01T14:24:54.492Z,20.77
2017-12-01T14:27:22.107Z,20.80
2017-12-01T14:29:50.224Z,20.70
2017-12-01T14:32:17.865Z,20.83
2017-12-01T14:34:45.500Z,21.93
2017-12-01T14:37:13.111Z,21.67
2017-12-01T14:39:40.820Z,21.80
2017-12-01T14:42:08.433Z,21.10
2017-12-01T14:44:36.035Z,21.50
2017-12-01T14:47:03.676Z,22.43
2017-12-01T14:49:31.282Z,22.70
2017-12-01T14:51:58.922Z,22.40
2017-12-01T14:54:27.259Z,22.93
2017-12-01T14:56:54.876Z,22.03
2017-12-01T14:59:22.499Z,22.13
2017-12-01T15:01:50.100Z,22.13
2017-12-01T15:04:18.062Z,22.00
2017-12-01T15:06:45.676Z,22.60
2017-12-01T15:09:13.252Z,22.83
2017-12-01T15:11:40.864Z,25.03
2017-12-01T15:14:08.502Z,22.70
2017-12-01T15:16:36.159Z,21.67
2017-12-01T15:19:04.036Z,24.77
2017-12-01T15:21:31.972Z,24.60
2017-12-01T15:23:59.612Z,23.13
2017-12-01T15:26:27.240Z,23.13
2017-12-01T15:28:54.875Z,22.50
2017-12-01T15:31:22.479Z,23.73
2017-12-01T15:33:50.075Z,22.00
2017-12-01T15:36:17.728Z,24.30
2017-12-01T15:38:45.317Z,21.43
2017-12-01T15:41:13.212Z,23.47
2017-12-01T15:43:41.076Z,23.57
2017-12-01T15:46:08.680Z,22.87
2017-12-01T15:48:36.353Z,23.40
2017-12-01T15:51:04.273Z,22.80
2017-12-01T15:53:31.902Z,23.40
2017-12-01T15:55:59.513Z,23.13
2017-12-01T15:58:27.476Z,22.70
2017-12-01T16:00:55.104Z,23.40
2017-12-01T16:03:22.698Z,24.83
2017-12-01T16:05:50.319Z,24.67
2017-12-01T16:08:18.240Z,24.97
2017-12-01T16:10:45.903Z,23.80
2017-12-01T16:13:13.517Z,23.60
2017-12-01T16:15:41.460Z,24.80
2017-12-01T16:18:09.512Z,23.73
2017-12-01T16:20:37.129Z,24.23
2017-12-01T16:23:04.733Z,23.57
2017-12-01T16:25:33.565Z,25.87
2017-12-01T16:28:01.232Z,23.70
2017-12-01T16:30:28.870Z,23.87
2017-12-01T16:33:00.284Z,24.67
2017-12-01T16:35:24.168Z,24.53
2017-12-01T16:37:51.841Z,25.43
2017-12-01T16:40:19.444Z,26.20
2017-12-01T16:42:49.511Z,23.93
2017-12-01T16:45:17.481Z,25.43
2017-12-01T16:47:45.350Z,23.93
2017-12-01T16:50:13.031Z,22.57
2017-12-01T16:52:40.874Z,24.47
2017-12-01T16:55:08.542Z,24.50
2017-12-01T16:57:36.133Z,25.07
2017-12-01T17:00:03.814Z,23.80
2017-12-01T17:02:31.541Z,23.13
2017-12-01T17:04:59.495Z,25.07
2017-12-01T17:07:27.113Z,24.20
2017-12-01T17:09:54.709Z,22.30
2017-12-01T17:12:22.383Z,25.07
2017-12-01T17:14:50.009Z,22.37
2017-12-01T17:17:17.909Z,23.60
2017-12-01T17:19:45.549Z,24.10
2017-12-01T17:22:13.134Z,24.03
2017-12-01T17:24:41.002Z,22.83
2017-12-01T17:27:08.636Z,23.37
2017-12-01T17:29:36.215Z,22.83
2017-12-01T17:32:03.842Z,24.27
2017-12-01T17:34:31.440Z,24.00
2017-12-01T17:36:59.051Z,23.60
2017-12-01T17:39:26.699Z,24.10
2017-12-01T17:41:54.339Z,24.73
2017-12-01T17:44:21.925Z,22.10
2017-12-01T17:46:49.556Z,22.57
2017-12-01T17:49:17.144Z,23.40
2017-12-01T17:51:44.987Z,24.20
2017-12-01T17:54:12.631Z,24.20
2017-12-01T17:56:40.261Z,23.17
2017-12-01T17:59:07.877Z,23.20
2017-12-01T18:01:35.579Z,23.10
2017-12-01T18:04:03.281Z,23.40
2017-12-01T18:06:30.942Z,22.80
2017-12-01T18:08:58.779Z,23.87
2017-12-01T18:11:26.378Z,22.97
2017-12-01T18:13:53.987Z,23.43
2017-12-01T18:16:21.601Z,23.00
2017-12-01T18:18:49.265Z,23.30
2017-12-01T18:21:16.862Z,23.37
2017-12-01T18:23:44.707Z,23.40
2017-12-01T18:26:12.389Z,23.27
2017-12-01T18:28:40.032Z,22.87
2017-12-01T18:31:07.678Z,23.57
2017-12-01T18:33:35.449Z,24.27
2017-12-01T18:36:03.340Z,25.20
2017-12-01T18:38:30.977Z,24.20
2017-12-01T18:40:58.564Z,23.80
2017-12-01T18:43:26.249Z,24.80
2017-12-01T18:45:53.888Z,23.70
2017-12-01T18:48:21.517Z,24.93
2017-12-01T18:50:49.124Z,25.10
2017-12-01T18:53:16.973Z,24.90
2017-12-01T18:55:44.616Z,24.13
2017-12-01T18:58:12.197Z,25.10
2017-12-01T19:00:39.822Z,24.47
2017-12-01T19:03:07.464Z,25.00
2017-12-01T19:05:35.060Z,24.47
2017-12-01T19:08:03.610Z,25.40
2017-12-01T19:10:31.229Z,26.73
2017-12-01T19:12:59.102Z,26.50
2017-12-01T19:15:26.964Z,25.90
2017-12-01T19:17:54.833Z,25.63
2017-12-01T19:20:22.806Z,26.30
2017-12-01T19:22:50.395Z,27.00
2017-12-01T19:25:17.993Z,26.50
2017-12-01T19:27:45.896Z,26.03
2017-12-01T19:30:13.510Z,26.50
2017-12-01T19:32:41.131Z,26.87
2017-12-01T19:35:08.782Z,26.80
2017-12-01T19:37:36.479Z,27.50
2017-12-01T19:40:04.418Z,25.80
2017-12-01T19:42:32.007Z,29.60
2017-12-01T19:44:59.992Z,28.23
2017-12-01T19:47:27.568Z,25.53
2017-12-01T19:49:55.175Z,26.90
2017-12-01T19:52:22.792Z,26.93
2017-12-01T19:54:50.434Z,26.63
2017-12-01T19:57:18.072Z,26.70
2017-12-01T19:59:45.700Z,26.93
2017-12-01T20:02:13.321Z,26.20
2017-12-01T20:04:40.941Z,27.87
2017-12-01T20:07:08.612Z,27.60
2017-12-01T20:09:36.251Z,26.07
2017-12-01T20:12:03.944Z,27.13
2017-12-01T20:14:31.539Z,24.13
2017-12-01T20:16:59.477Z,24.67
2017-12-01T20:19:27.342Z,23.43
2017-12-01T20:21:54.980Z,25.50
2017-12-01T20:24:22.593Z,29.23
2017-12-01T20:26:50.185Z,27.60
2017-12-01T20:29:17.808Z,24.27
2017-12-01T20:31:45.648Z,25.27
2017-12-01T20:34:13.286Z,26.23
2017-12-01T20:36:40.897Z,28.97
2017-12-01T20:39:08.504Z,25.50
2017-12-01T20:41:36.163Z,26.47
2017-12-01T20:44:03.820Z,26.13
2017-12-01T20:46:31.455Z,25.93
2017-12-01T20:48:59.409Z,26.07
2017-12-01T20:51:27.089Z,25.60
2017-12-01T20:53:54.744Z,30.63
2017-12-01T20:56:22.445Z,26.67
2017-12-01T20:58:50.091Z,29.07
2017-12-01T21:01:17.732Z,27.00
2017-12-01T21:03:45.382Z,25.70
2017-12-01T21:06:13.020Z,24.77
2017-12-01T21:08:40.825Z,25.93
2017-12-01T21:11:08.684Z,25.67
2017-12-01T21:13:36.549Z,24.97
2017-12-01T21:16:04.124Z,23.93
2017-12-01T21:18:31.761Z,24.43
2017-12-01T21:20:59.337Z,24.00
2017-12-01T21:23:26.987Z,24.43
2017-12-01T21:25:54.853Z,25.47
2017-12-01T21:28:22.437Z,25.90
2017-12-01T21:30:50.059Z,25.70
2017-12-01T21:33:17.639Z,25.80
2017-12-01T21:35:45.264Z,25.37
2017-12-01T21:38:16.342Z,25.50
2017-12-01T21:40:44.208Z,25.77
2017-12-01T21:43:12.208Z,23.77
2017-12-01T21:45:39.819Z,25.20
2017-12-01T21:48:07.440Z,25.00
2017-12-01T21:50:35.042Z,26.00
2017-12-01T21:53:02.631Z,26.50
2017-12-01T21:55:30.262Z,27.17
2017-12-01T21:57:57.841Z,26.20
2017-12-01T22:00:25.455Z,24.90
2017-12-01T22:02:53.043Z,26.80
2017-12-01T22:05:20.621Z,25.63
2017-12-01T22:07:48.247Z,24.90
2017-12-01T22:10:15.873Z,26.30
2017-12-01T22:12:43.528Z,26.47
2017-12-01T22:15:11.191Z,24.17
2017-12-01T22:17:38.792Z,23.23
2017-12-01T22:20:06.410Z,23.30
2017-12-01T22:22:34.025Z,26.00
2017-12-01T22:25:01.687Z,22.93
2017-12-01T22:27:29.273Z,22.87
2017-12-01T22:29:57.164Z,23.70
2017-12-01T22:32:24.861Z,23.60
2017-12-01T22:34:52.471Z,23.87
2017-12-01T22:37:20.105Z,21.27
2017-12-01T22:39:47.687Z,23.60
2017-12-01T22:42:15.277Z,22.40
2017-12-01T22:44:42.889Z,22.33
2017-12-01T22:47:10.466Z,22.13
2017-12-01T22:49:38.092Z,22.87
2017-12-01T22:52:05.685Z,21.97
2017-12-01T22:54:33.593Z,22.20
2017-12-01T22:57:03.040Z,23.10
2017-12-01T22:59:30.660Z,22.00
2017-12-01T23:01:58.285Z,23.80
2017-12-01T23:04:25.888Z,23.13
2017-12-01T23:06:53.483Z,23.60
2017-12-01T23:09:21.104Z,23.00
2017-12-01T23:11:48.700Z,26.20
2017-12-01T23:14:16.341Z,22.70
2017-12-01T23:16:43.975Z,22.00
2017-12-01T23:19:11.596Z,23.90
2017-12-01T23:21:39.535Z,23.17
2017-12-01T23:24:07.191Z,25.50
2017-12-01T23:26:34.812Z,23.80
2017-12-01T23:29:02.395Z,24.33
2017-12-01T23:31:29.992Z,22.77
2017-12-01T23:33:57.603Z,24.67
2017-12-01T23:36:25.196Z,23.53
2017-12-01T23:38:52.819Z,23.70
2017-12-01T23:41:20.412Z,22.57
2017-12-01T23:43:47.995Z,23.37
2017-12-01T23:46:15.603Z,23.50
2017-12-01T23:48:43.216Z,23.63
2017-12-01T23:51:10.852Z,22.90
2017-12-01T23:53:38.484Z,24.03
2017-12-01T23:56:06.053Z,23.97
2017-12-01T23:58:33.680Z,23.57
